Weather Data

Pearl Creek Farm: 8878 N Farm Road 75, Walnut Grove MO 65770

<== Previous Day (Monday 02 Mar 2009) | Next Day (Wednesday 04 Mar 2009) ==>

Summary Precipitation Data For Tuesday 03 March 2009

ElementValueUnits
Precipitation0"
Notes(none)
SourceSpringfield-Branson National Airport (SGF)

Summary Temperature Data For Tuesday 03 March 2009

ElementValueUnits
High Temperature41 oF
Low Temperature25 oF
Average Temperature32 oF
High Humidity61 %
Low Humidity33 %
Average Humidity46 %
SourceSpringfield-Branson National Airport (SGF)

Detail Temperature Data For Tuesday 03 March 2009

Date / TimeTemp (F)RH (%)Dew Pt (F)Report Date / TimeSource
2009-03-03 00:52:00 31 42 10.0 2017-12-29 19:14:24.89625 Springfield-Branson National Airport (SGF)
2009-03-03 01:52:00 30 43 10.0 2017-12-29 19:14:24.89625 Springfield-Branson National Airport (SGF)
2009-03-03 02:52:00 29 51 13.0 2017-12-29 19:14:24.89625 Springfield-Branson National Airport (SGF)
2009-03-03 03:52:00 27 61 15.0 2017-12-29 19:14:24.89625 Springfield-Branson National Airport (SGF)
2009-03-03 04:52:00 26 60 14.0 2017-12-29 19:14:24.89625 Springfield-Branson National Airport (SGF)
2009-03-03 05:52:00 26 60 14.0 2017-12-29 19:14:24.89625 Springfield-Branson National Airport (SGF)
2009-03-03 06:52:00 25 60 13.0 2017-12-29 19:14:24.89625 Springfield-Branson National Airport (SGF)
2009-03-03 07:52:00 26 55 12.0 2017-12-29 19:14:24.89625 Springfield-Branson National Airport (SGF)
2009-03-03 08:52:00 27 51 11.0 2017-12-29 19:14:24.89625 Springfield-Branson National Airport (SGF)
2009-03-03 09:52:00 29 49 12.0 2017-12-29 19:14:24.89625 Springfield-Branson National Airport (SGF)
2009-03-03 10:52:00 31 47 13.0 2017-12-29 19:14:24.89625 Springfield-Branson National Airport (SGF)
2009-03-03 11:52:00 34 40 12.0 2017-12-29 19:14:24.89625 Springfield-Branson National Airport (SGF)
2009-03-03 12:52:00 39 34 13.0 2017-12-29 19:14:24.89625 Springfield-Branson National Airport (SGF)
2009-03-03 13:52:00 39 34 13.0 2017-12-29 19:14:24.89625 Springfield-Branson National Airport (SGF)
2009-03-03 14:52:00 41 33 14.0 2017-12-29 19:14:24.89625 Springfield-Branson National Airport (SGF)
2009-03-03 15:52:00 40 35 14.0 2017-12-29 19:14:24.89625 Springfield-Branson National Airport (SGF)
2009-03-03 16:52:00 39 36 14.0 2017-12-29 19:14:24.89625 Springfield-Branson National Airport (SGF)
2009-03-03 17:52:00 37 37 13.0 2017-12-29 19:14:24.89625 Springfield-Branson National Airport (SGF)
2009-03-03 18:52:00 36 39 13.0 2017-12-29 19:14:24.89625 Springfield-Branson National Airport (SGF)
2009-03-03 19:52:00 34 44 14.0 2017-12-29 19:14:24.89625 Springfield-Branson National Airport (SGF)
2009-03-03 20:52:00 33 45 14.0 2017-12-29 19:14:24.89625 Springfield-Branson National Airport (SGF)
2009-03-03 21:52:00 32 47 14.0 2017-12-29 19:14:24.89625 Springfield-Branson National Airport (SGF)
2009-03-03 22:52:00 31 49 14.0 2017-12-29 19:14:24.89625 Springfield-Branson National Airport (SGF)
2009-03-03 23:52:00 30 54 15.0 2017-12-29 19:14:24.89625 Springfield-Branson National Airport (SGF)

A total of 24 rows are displayed.